sim
Sign-in with your pilot id or email,
or register
Callsign
Passwort

Schedule Details

Flight Number: OEO5716
Departure: Gran Canaria Airport (GCLP) at 10:20
Arrival: Bremen Airport (EDDW) at 15:05

Weather Information
Getting current METAR information for GCLP 112000Z 01026KT 9999 FEW025 23/17 Q1011 NOSIG
Getting current METAR information for EDDW 112020Z 23001KT 9999 FEW028 13/12 Q1025 NOSIG

Schedule Frequency

Route Map